In Rescue
 
Open Full Screen Window  High Contrast Mode
Wind Gusting 00 knots
05
August 09, 2020 6:35 PM EDT
Weather Information
Wind Direction
  150 °
Wind Speed
  05 kt (6 mph)
Wind Gust
  00 kt (0 mph)
Altimeter
29.95 in
Visibility
10 SM
Temperature
24° C
75° F
Dewpoint
21° C
70° F
Humidity
83%
1hr Rain Fall
00.00 in.
24hr Rain Fall
00.33 in.
Sky Condition
Scattered @ 1,000 ft
VFR

METAR KDRM 092235Z AUTO 15005KT 10SM SCT010 24/21 A2995 RMK AO2 T02400206

FAA Disclaimer: The data displayed is for advisory purposes only and is not to be used for flight planning or operations.